Aviation Digital Data Service (ADDS)

Output produced by METARs form (0105 UTC 27 January 2015)
found at http://www.aviationweather.gov/adds/metars/
 
SEGU 270000Z 02006KT 9999 BKN023 BKN090 26/21 Q1009 NOSIG RMK A2982
SEGU 262205Z 2700/2724 23006KT 9999 BKN020 BKN080 
     FM270600 22006KT 9999 FEW015 BKN020 OVC070 
     TEMPO 2706/2709 6000 RA 
     FM271200 21005KT 9999 SCT025 BKN100 
     FM271800 15005KT 9999 SCT030 BKN100 TX32/2720Z TN24/2710Z
       
SEMT 270000Z 19011KT 9999 BKN026 26/21 Q1010
SEMT 262205Z 2700/2724 20005KT 9999 OVC020 
     FM271200 21007KT 9999 BKN023 
     FM271800 30010KT 9999 SCT023 SCT090 TX30/2720Z TN23/2710Z